This is the latest recevied weather packets stored in our database for station/object IZ3TCG-13. If no packets are shown the sender has not sent any weather packets the latest 10 day(s).
| Time | Temp. | Humidity | Pressure | Rain* | Wind** | Luminosity | Snow |
|---|---|---|---|---|---|---|---|
| 1777504084 | 12.22° C | 89% | 1017.4 hPa | 0 mm | - | - | - |
| 1777503364 | 12.22° C | 91% | 1017.5 hPa | 0 mm | - | - | - |
| 1777502644 | 12.22° C | 92% | 1017.3 hPa | 0 mm | - | - | - |
| 1777502403 | 12.22° C | 93% | 1017.2 hPa | 0 mm | - | - | - |
| 1777501924 | 12.22° C | 94% | 1017.2 hPa | 0 mm | - | - | - |
| 1777499284 | 12.22° C | 95% | 1016.4 hPa | 1.52 mm | - | - | - |
| 1777496164 | 13.33° C | 89% | 1016.1 hPa | 0.51 mm | - | - | - |
| 1777494003 | 14.44° C | 77% | 1015.9 hPa | 0 mm | - | - | - |
| 1777493525 | 14.44° C | 76% | 1015.6 hPa | 0 mm | - | - | - |
| 1777492804 | 14.44° C | 77% | 1015.6 hPa | 0 mm | - | - | - |
| 1777489683 | 15.56° C | 72% | 1014.7 hPa | 0 mm | - | - | - |
| 1777488964 | 16.11° C | 70% | 1014.6 hPa | 0 mm | - | - | - |
| 1777488724 | 16.11° C | 69% | 1014.7 hPa | 0 mm | - | - | - |
| 1777482004 | 17.78° C | 59% | 1013.2 hPa | 0 mm | - | - | - |
| 1777481414 | 17.78° C | 60% | 1013 hPa | 0 mm | - | - | - |
| 1777478404 | 18.33° C | 61% | 1013.2 hPa | 0 mm | - | - | - |
| 1777478055 | 18.89° C | 61% | 1013 hPa | 0 mm | - | - | - |
| 1777477205 | 18.89° C | 60% | 1013.1 hPa | 0 mm | - | - | - |
| 1777476724 | 19.44° C | 60% | 1013.2 hPa | 0 mm | - | - | - |
| 1777475284 | 20° C | 58% | 1013 hPa | 0 mm | - | - | - |
| 1777474697 | 20.56° C | 57% | 1013.1 hPa | 0 mm | - | - | - |
| 1777473603 | 20° C | 57% | 1013.1 hPa | 0 mm | - | - | - |
| 1777472404 | 21.11° C | 54% | 1013 hPa | 0 mm | - | - | - |
| 1777471924 | 21.67° C | 53% | 1012.8 hPa | 0 mm | - | - | - |
| 1777469763 | 21.67° C | 55% | 1012.7 hPa | 0 mm | - | - | - |
* Rain latest hour (hover to see other rain measurements)
** Current wind speed in m/s (hover to see current wind gust speed)